WetterOnline ( http://www.wetteronline.de )

Wetter aktuell Hildesheim

Aktuelles Wetter: Alfeld (148m)

6-stündlich | Neueste Meldungen
Ortszeit Temperatur Wetter
Do, 21.06. 8:00 19.5° C wolkig
Do, 21.06. 2:00 14.9° C wolkenlos
Mi, 20.06. 20:00 26.6° C wolkenlos
Mi, 20.06. 14:00 24.1° C bedeckt
Mi, 20.06. 8:00 18.7° C wolkenlos
Mi, 20.06. 2:00 17.4° C bedeckt
Di, 19.06. 20:00 20.7° C bedeckt
Di, 19.06. 14:00 21.3° C bewölkt
Ortszeit Temperatur Wetter
Do, 21.06. 10:00 21.0° C bewölkt
Do, 21.06. 9:50 21.0° C bewölkt
Do, 21.06. 9:40 21.4° C wolkig
Do, 21.06. 9:30 21.0° C wolkig
Do, 21.06. 9:20 21.0° C wolkig
Do, 21.06. 9:10 21.0° C wolkig
Do, 21.06. 9:00 19.8° C wolkig
Do, 21.06. 8:30 19.9° C wolkig
Do, 21.06. 8:00 19.5° C wolkig
Do, 21.06. 7:30 19.1° C leicht bewölkt
Do, 21.06. 7:00 17.2° C bewölkt
Ortszeit Relative Feuchte Sichtweite
Do, 21.06. 8:00 71% 35 km
Do, 21.06. 2:00 90% 22 km
Mi, 20.06. 20:00 42% 70 km
Mi, 20.06. 14:00 56% 29 km
Mi, 20.06. 8:00 82% 9 km
Mi, 20.06. 2:00 90% 11 km
Di, 19.06. 20:00 69% 18 km
Di, 19.06. 14:00 66% 30 km
Ortszeit Relative Feuchte Sichtweite
Do, 21.06. 10:00 65% 16 km
Do, 21.06. 9:50 65% -
Do, 21.06. 9:40 65% -
Do, 21.06. 9:30 67% 21 km
Do, 21.06. 9:20 67% -
Do, 21.06. 9:10 69% -
Do, 21.06. 9:00 71% 15 km
Do, 21.06. 8:30 71% 22 km
Do, 21.06. 8:00 71% 35 km
Do, 21.06. 7:30 71% 35 km
Do, 21.06. 7:00 83% 26 km
Ortszeit Niederschlagsmenge Niederschlagsart
Do, 21.06. 8:00 0.0 l/m2 in 12 Std. -
Do, 21.06. 2:00 0.0 l/m2 in 6 Std. -
Mi, 20.06. 20:00 0.0 l/m2 in 12 Std. -
Mi, 20.06. 14:00 0.0 l/m2 in 6 Std. -
Mi, 20.06. 8:00 0.0 l/m2 in 12 Std. -
Mi, 20.06. 2:00 0.0 l/m2 in 6 Std. -
Di, 19.06. 20:00 0.1 l/m2 in 12 Std. Regen
Di, 19.06. 14:00 0.0 l/m2 in 6 Std. -
Ortszeit Niederschlagsmenge Niederschlagsart
Do, 21.06. 10:00 0.0 l/m2 in 1 Std. -
Do, 21.06. 9:50 keine Meldung -
Do, 21.06. 9:40 keine Meldung -
Do, 21.06. 9:30 0.0 l/m2 in 1 Std. -
Do, 21.06. 9:20 keine Meldung -
Do, 21.06. 9:10 keine Meldung -
Do, 21.06. 9:00 0.0 l/m2 in 1 Std. -
Do, 21.06. 8:30 0.0 l/m2 in 1 Std. -
Do, 21.06. 8:00 0.0 l/m2 in 1 Std. -
Do, 21.06. 7:30 0.0 l/m2 in 1 Std. -
Do, 21.06. 7:00 0.0 l/m2 in 1 Std. -
Ortszeit Stärke Spitze Richtung
km/h Bft. km/h Grad Sektor
Do, 21.06. 8:00 11 2 18 210° SW
Do, 21.06. 2:00 4 1 18 120° SO
Mi, 20.06. 20:00 7 2 32 280° W
Mi, 20.06. 14:00 9 2 28 190° S
Mi, 20.06. 8:00 7 2 11 110° O
Mi, 20.06. 2:00 0 0 29 - -
Di, 19.06. 20:00 4 1 32 10° N
Di, 19.06. 14:00 14 3 40 290° W
Ortszeit Stärke Spitze Richtung
km/h Bft. km/h Grad Sektor
Do, 21.06. 10:00 25 4 43 250° W
Do, 21.06. 9:50 25 4 - 250° W
Do, 21.06. 9:40 22 4 - 240° SW
Do, 21.06. 9:30 20 4 33 230° SW
Do, 21.06. 9:20 20 4 - 230° SW
Do, 21.06. 9:10 14 3 - 240° SW
Do, 21.06. 9:00 20 4 35 240° SW
Do, 21.06. 8:30 15 3 31 250° W
Do, 21.06. 8:00 11 2 18 210° SW
Do, 21.06. 7:30 7 2 14 200° S
Do, 21.06. 7:00 4 1 11 160° S
Ortszeit Untergrenze Bedeckung Gattung
total tief tief mittel hoch
Do, 21.06. 8:00 5400 m 8/8 2/8 - - -
Do, 21.06. 2:00 - 0/8 0/8 - - -
Mi, 20.06. 20:00 - 0/8 0/8 - - -
Mi, 20.06. 14:00 1050 m 8/8 8/8 - - -
Mi, 20.06. 8:00 - 0/8 0/8 - - -
Mi, 20.06. 2:00 1500 m 8/8 8/8 - - -
Di, 19.06. 20:00 1800 m 8/8 8/8 - - -
Di, 19.06. 14:00 720 m 7/8 7/8 - - -
Ortszeit Bedeckungsgrad in Achtel und Wolkenuntergrenze
Do, 21.06. 10:00 2(990m) 6(2700m) 7(7500m)
Do, 21.06. 9:50 2(990m) 6(2700m) 7(7500m)
Do, 21.06. 9:40 1(780m) 4(1050m) 5(7500m)
Do, 21.06. 9:30 2(750m) 6(7500m) 6(7500m)
Do, 21.06. 9:20 2(750m) 6(7500m)
Do, 21.06. 9:10 1(750m) 7(7500m) 7(8700m)
Do, 21.06. 9:00 8(8100m) 8(7800m)
Do, 21.06. 8:30 8(8400m)
Do, 21.06. 8:00 2(5400m) 7(8400m) 8(9000m)
Do, 21.06. 7:30 1(1500m) 5(5400m) 6(9000m)
Do, 21.06. 7:00 1(1050m) 7(1500m)
Ortszeit Luftdruck NN (hPa) Tendenz (hPa in 3 Std.)
Do, 21.06. 8:00 1012 - 1,8
Do, 21.06. 2:00 1016 - 1,0
Mi, 20.06. 20:00 1017 - 1,9
Mi, 20.06. 14:00 1021 - 1,4
Mi, 20.06. 8:00 1023 - 0,4
Mi, 20.06. 2:00 1024 0,0
Di, 19.06. 20:00 1023 - 0,3
Di, 19.06. 14:00 1023 + 0,7
Ortszeit Luftdruck NN (hPa) Tendenz (hPa in 3 Std.)
Do, 21.06. 10:00 1011 - 2,2
Do, 21.06. 9:50 1011 keine Meldung
Do, 21.06. 9:40 1011 keine Meldung
Do, 21.06. 9:30 1011 - 2,1
Do, 21.06. 9:20 1011 keine Meldung
Do, 21.06. 9:10 1011 keine Meldung
Do, 21.06. 9:00 1011 - 1,8
Do, 21.06. 8:30 1012 - 1,8
Do, 21.06. 8:00 1012 - 1,8
Do, 21.06. 7:30 1013 - 1,4
Do, 21.06. 7:00 1013 - 1,5
Ortszeit Schneehöhe (cm)
Do, 21.06. 8:00 -
Do, 21.06. 2:00 -
Mi, 20.06. 20:00 -
Mi, 20.06. 14:00 -
Mi, 20.06. 8:00 -
Mi, 20.06. 2:00 -
Di, 19.06. 20:00 -
Di, 19.06. 14:00 -
Ortszeit Schneehöhe (cm)
Do, 21.06. 10:00 -
Do, 21.06. 9:50 -
Do, 21.06. 9:40 -
Do, 21.06. 9:30 -
Do, 21.06. 9:20 -
Do, 21.06. 9:10 -
Do, 21.06. 9:00 -
Do, 21.06. 8:30 -
Do, 21.06. 8:00 -
Do, 21.06. 7:30 -
Do, 21.06. 7:00 -
Link zu dieser Seite / Seite empfehlen

Das Wetter in ...